Terminal Aerodrome Forecast
Issued by NWS

Home | Current Version | Previous Version | Text Only | Print | Product List | Glossary On
Versions: 1 2 3 4 5 6 7 8 9 10 11 12
000
FTUS42 TJSJ 240500
TAFIST
TAF
TIST 240531Z 2406/2506 12005KT P6SM FEW025
     FM241300 14012KT P6SM VCSH SCT030 SCT050
     FM242300 11005KT P6SM SCT025=

USA.gov is the U.S. government's official web portal to all federal, state and local government web resources and services.